sensor_id;sensor_type;location;lat;lon;timestamp;P1;durP1;ratioP1;P2;durP2;ratioP2
15502;SDS011;7853;52.186;5.948;2023-08-31T00:00:53;1.92;;;1.43;;
15502;SDS011;7853;52.186;5.948;2023-08-31T00:01:50;2.83;;;1.53;;
15502;SDS011;7853;52.186;5.948;2023-08-31T00:02:42;1.68;;;1.23;;
15502;SDS011;7853;52.186;5.948;2023-08-31T00:03:38;1.56;;;1.42;;
15502;SDS011;7853;52.186;5.948;2023-08-31T00:04:36;1.78;;;1.42;;
15502;SDS011;7853;52.186;5.948;2023-08-31T00:05:36;1.96;;;1.37;;
15502;SDS011;7853;52.186;5.948;2023-08-31T00:06:34;2.66;;;1.69;;
15502;SDS011;7853;52.186;5.948;2023-08-31T00:07:34;2.09;;;1.34;;
15502;SDS011;7853;52.186;5.948;2023-08-31T00:08:36;1.68;;;1.43;;
15502;SDS011;7853;52.186;5.948;2023-08-31T00:09:34;1.84;;;1.52;;
15502;SDS011;7853;52.186;5.948;2023-08-31T00:10:34;2.60;;;1.53;;
15502;SDS011;7853;52.186;5.948;2023-08-31T00:11:34;3.54;;;1.55;;
15502;SDS011;7853;52.186;5.948;2023-08-31T00:12:34;2.04;;;1.50;;
15502;SDS011;7853;52.186;5.948;2023-08-31T00:13:34;3.06;;;1.58;;
15502;SDS011;7853;52.186;5.948;2023-08-31T00:14:34;2.36;;;1.60;;
15502;SDS011;7853;52.186;5.948;2023-08-31T00:15:34;2.53;;;1.60;;
15502;SDS011;7853;52.186;5.948;2023-08-31T00:16:34;1.76;;;1.50;;
15502;SDS011;7853;52.186;5.948;2023-08-31T00:17:34;2.10;;;1.46;;
15502;SDS011;7853;52.186;5.948;2023-08-31T00:18:34;2.22;;;1.60;;
15502;SDS011;7853;52.186;5.948;2023-08-31T00:19:34;2.16;;;1.55;;
15502;SDS011;7853;52.186;5.948;2023-08-31T00:20:34;1.85;;;1.54;;
15502;SDS011;7853;52.186;5.948;2023-08-31T00:21:34;1.92;;;1.48;;
15502;SDS011;7853;52.186;5.948;2023-08-31T00:22:34;1.75;;;1.46;;
15502;SDS011;7853;52.186;5.948;2023-08-31T00:23:34;1.62;;;1.44;;
15502;SDS011;7853;52.186;5.948;2023-08-31T00:24:34;3.29;;;1.62;;
15502;SDS011;7853;52.186;5.948;2023-08-31T00:25:34;1.86;;;1.55;;
15502;SDS011;7853;52.186;5.948;2023-08-31T00:26:34;2.49;;;1.53;;
15502;SDS011;7853;52.186;5.948;2023-08-31T00:27:34;2.18;;;1.51;;
15502;SDS011;7853;52.186;5.948;2023-08-31T00:28:34;2.71;;;1.56;;
15502;SDS011;7853;52.186;5.948;2023-08-31T00:29:34;3.23;;;1.64;;
15502;SDS011;7853;52.186;5.948;2023-08-31T00:30:34;2.52;;;1.56;;
15502;SDS011;7853;52.186;5.948;2023-08-31T00:31:34;2.31;;;1.61;;
15502;SDS011;7853;52.186;5.948;2023-08-31T00:32:34;2.40;;;1.49;;
15502;SDS011;7853;52.186;5.948;2023-08-31T00:33:34;2.22;;;1.62;;
15502;SDS011;7853;52.186;5.948;2023-08-31T00:34:34;2.16;;;1.61;;
15502;SDS011;7853;52.186;5.948;2023-08-31T00:35:34;2.41;;;1.61;;
15502;SDS011;7853;52.186;5.948;2023-08-31T00:36:36;2.18;;;1.64;;
15502;SDS011;7853;52.186;5.948;2023-08-31T00:37:34;2.21;;;1.61;;
15502;SDS011;7853;52.186;5.948;2023-08-31T00:38:34;2.08;;;1.47;;
15502;SDS011;7853;52.186;5.948;2023-08-31T00:39:34;2.24;;;1.66;;
15502;SDS011;7853;52.186;5.948;2023-08-31T00:40:38;2.45;;;1.52;;
15502;SDS011;7853;52.186;5.948;2023-08-31T00:41:34;2.45;;;1.54;;
15502;SDS011;7853;52.186;5.948;2023-08-31T00:42:34;1.89;;;1.50;;
15502;SDS011;7853;52.186;5.948;2023-08-31T00:43:34;2.46;;;1.60;;
15502;SDS011;7853;52.186;5.948;2023-08-31T00:44:34;2.01;;;1.64;;
15502;SDS011;7853;52.186;5.948;2023-08-31T00:45:35;2.51;;;1.59;;
15502;SDS011;7853;52.186;5.948;2023-08-31T00:46:34;2.24;;;1.52;;
15502;SDS011;7853;52.186;5.948;2023-08-31T00:47:34;2.50;;;1.67;;
15502;SDS011;7853;52.186;5.948;2023-08-31T00:48:35;2.58;;;1.69;;
15502;SDS011;7853;52.186;5.948;2023-08-31T00:49:35;2.79;;;1.77;;
15502;SDS011;7853;52.186;5.948;2023-08-31T00:50:35;2.42;;;1.58;;
15502;SDS011;7853;52.186;5.948;2023-08-31T00:51:35;2.35;;;1.73;;
15502;SDS011;7853;52.186;5.948;2023-08-31T00:52:35;2.71;;;1.65;;
15502;SDS011;7853;52.186;5.948;2023-08-31T00:53:35;2.05;;;1.55;;
15502;SDS011;7853;52.186;5.948;2023-08-31T00:54:35;2.59;;;1.74;;
15502;SDS011;7853;52.186;5.948;2023-08-31T00:55:35;2.12;;;1.71;;
15502;SDS011;7853;52.186;5.948;2023-08-31T00:56:35;2.11;;;1.59;;
15502;SDS011;7853;52.186;5.948;2023-08-31T00:57:35;3.65;;;1.89;;
15502;SDS011;7853;52.186;5.948;2023-08-31T00:58:35;2.84;;;1.85;;
15502;SDS011;7853;52.186;5.948;2023-08-31T00:59:35;2.46;;;1.63;;
15502;SDS011;7853;52.186;5.948;2023-08-31T01:00:37;2.61;;;1.72;;
15502;SDS011;7853;52.186;5.948;2023-08-31T01:01:36;3.86;;;1.85;;
15502;SDS011;7853;52.186;5.948;2023-08-31T01:02:37;2.19;;;1.62;;
15502;SDS011;7853;52.186;5.948;2023-08-31T01:03:35;3.16;;;1.80;;
15502;SDS011;7853;52.186;5.948;2023-08-31T01:04:38;2.65;;;1.81;;
15502;SDS011;7853;52.186;5.948;2023-08-31T01:05:37;3.34;;;1.84;;
15502;SDS011;7853;52.186;5.948;2023-08-31T01:06:36;2.58;;;1.71;;
15502;SDS011;7853;52.186;5.948;2023-08-31T01:07:37;3.44;;;1.75;;
15502;SDS011;7853;52.186;5.948;2023-08-31T01:08:36;4.06;;;2.08;;
15502;SDS011;7853;52.186;5.948;2023-08-31T01:09:36;2.36;;;1.83;;
15502;SDS011;7853;52.186;5.948;2023-08-31T01:10:36;3.13;;;1.92;;
15502;SDS011;7853;52.186;5.948;2023-08-31T01:11:37;2.36;;;1.69;;
15502;SDS011;7853;52.186;5.948;2023-08-31T01:12:36;2.27;;;1.76;;
15502;SDS011;7853;52.186;5.948;2023-08-31T01:13:35;2.41;;;1.82;;
15502;SDS011;7853;52.186;5.948;2023-08-31T01:14:38;3.14;;;1.70;;
15502;SDS011;7853;52.186;5.948;2023-08-31T01:15:38;2.89;;;1.72;;
15502;SDS011;7853;52.186;5.948;2023-08-31T01:16:33;2.42;;;1.83;;
15502;SDS011;7853;52.186;5.948;2023-08-31T01:17:36;3.09;;;1.87;;
15502;SDS011;7853;52.186;5.948;2023-08-31T01:18:34;2.99;;;1.99;;
15502;SDS011;7853;52.186;5.948;2023-08-31T01:19:39;3.33;;;1.82;;
15502;SDS011;7853;52.186;5.948;2023-08-31T01:20:37;3.59;;;2.08;;
15502;SDS011;7853;52.186;5.948;2023-08-31T01:21:37;3.65;;;2.27;;
15502;SDS011;7853;52.186;5.948;2023-08-31T01:22:37;3.51;;;1.92;;
15502;SDS011;7853;52.186;5.948;2023-08-31T01:23:45;3.13;;;2.17;;
15502;SDS011;7853;52.186;5.948;2023-08-31T01:24:50;2.26;;;1.76;;
15502;SDS011;7853;52.186;5.948;2023-08-31T01:25:42;2.62;;;1.85;;
15502;SDS011;7853;52.186;5.948;2023-08-31T01:26:38;3.53;;;1.91;;
15502;SDS011;7853;52.186;5.948;2023-08-31T01:27:36;3.85;;;2.07;;
15502;SDS011;7853;52.186;5.948;2023-08-31T01:28:35;2.37;;;1.81;;
15502;SDS011;7853;52.186;5.948;2023-08-31T01:29:34;2.85;;;1.85;;
15502;SDS011;7853;52.186;5.948;2023-08-31T01:30:34;2.81;;;1.91;;
15502;SDS011;7853;52.186;5.948;2023-08-31T01:31:41;2.96;;;1.98;;
15502;SDS011;7853;52.186;5.948;2023-08-31T01:32:34;4.14;;;2.03;;
15502;SDS011;7853;52.186;5.948;2023-08-31T01:33:34;3.55;;;2.13;;
15502;SDS011;7853;52.186;5.948;2023-08-31T01:34:34;4.83;;;2.02;;
15502;SDS011;7853;52.186;5.948;2023-08-31T01:35:37;3.09;;;2.16;;
15502;SDS011;7853;52.186;5.948;2023-08-31T01:36:34;2.72;;;2.19;;
15502;SDS011;7853;52.186;5.948;2023-08-31T01:37:36;2.42;;;1.96;;
15502;SDS011;7853;52.186;5.948;2023-08-31T01:38:34;3.62;;;2.05;;
15502;SDS011;7853;52.186;5.948;2023-08-31T01:39:35;3.08;;;2.04;;
15502;SDS011;7853;52.186;5.948;2023-08-31T01:40:35;3.26;;;2.16;;
15502;SDS011;7853;52.186;5.948;2023-08-31T01:41:34;3.75;;;2.47;;
15502;SDS011;7853;52.186;5.948;2023-08-31T01:42:34;2.79;;;2.05;;
15502;SDS011;7853;52.186;5.948;2023-08-31T01:43:37;3.89;;;2.28;;
15502;SDS011;7853;52.186;5.948;2023-08-31T01:44:33;4.00;;;2.04;;
15502;SDS011;7853;52.186;5.948;2023-08-31T01:45:33;3.10;;;2.24;;
15502;SDS011;7853;52.186;5.948;2023-08-31T01:46:34;2.89;;;2.14;;
15502;SDS011;7853;52.186;5.948;2023-08-31T01:47:34;3.61;;;1.92;;
15502;SDS011;7853;52.186;5.948;2023-08-31T01:48:37;2.88;;;2.12;;
15502;SDS011;7853;52.186;5.948;2023-08-31T01:49:35;3.30;;;2.13;;
15502;SDS011;7853;52.186;5.948;2023-08-31T01:50:34;3.61;;;2.25;;
15502;SDS011;7853;52.186;5.948;2023-08-31T01:51:34;3.17;;;1.99;;
15502;SDS011;7853;52.186;5.948;2023-08-31T01:52:34;3.39;;;2.29;;
15502;SDS011;7853;52.186;5.948;2023-08-31T01:53:34;3.71;;;2.10;;
15502;SDS011;7853;52.186;5.948;2023-08-31T01:54:34;3.21;;;2.06;;
15502;SDS011;7853;52.186;5.948;2023-08-31T01:55:35;3.24;;;2.25;;
15502;SDS011;7853;52.186;5.948;2023-08-31T01:56:34;3.26;;;2.15;;
15502;SDS011;7853;52.186;5.948;2023-08-31T01:57:34;2.77;;;2.11;;
15502;SDS011;7853;52.186;5.948;2023-08-31T01:58:34;2.90;;;2.29;;
15502;SDS011;7853;52.186;5.948;2023-08-31T01:59:34;4.17;;;2.41;;
15502;SDS011;7853;52.186;5.948;2023-08-31T02:00:34;3.45;;;2.47;;
15502;SDS011;7853;52.186;5.948;2023-08-31T02:01:34;3.98;;;2.23;;
15502;SDS011;7853;52.186;5.948;2023-08-31T02:02:34;2.74;;;2.25;;
15502;SDS011;7853;52.186;5.948;2023-08-31T02:03:34;3.48;;;2.58;;
15502;SDS011;7853;52.186;5.948;2023-08-31T02:04:38;3.45;;;2.48;;
15502;SDS011;7853;52.186;5.948;2023-08-31T02:05:35;3.47;;;2.38;;
15502;SDS011;7853;52.186;5.948;2023-08-31T02:06:34;2.87;;;2.14;;
15502;SDS011;7853;52.186;5.948;2023-08-31T02:07:34;3.29;;;2.23;;
15502;SDS011;7853;52.186;5.948;2023-08-31T02:08:34;3.37;;;2.38;;
15502;SDS011;7853;52.186;5.948;2023-08-31T02:09:34;3.22;;;2.31;;
15502;SDS011;7853;52.186;5.948;2023-08-31T02:10:34;3.61;;;2.40;;
15502;SDS011;7853;52.186;5.948;2023-08-31T02:11:35;3.19;;;2.31;;
15502;SDS011;7853;52.186;5.948;2023-08-31T02:12:35;3.56;;;2.61;;
15502;SDS011;7853;52.186;5.948;2023-08-31T02:13:35;4.45;;;2.81;;
15502;SDS011;7853;52.186;5.948;2023-08-31T02:14:35;4.92;;;2.62;;
15502;SDS011;7853;52.186;5.948;2023-08-31T02:15:37;3.77;;;2.78;;
15502;SDS011;7853;52.186;5.948;2023-08-31T02:16:35;4.16;;;2.78;;
15502;SDS011;7853;52.186;5.948;2023-08-31T02:17:35;3.14;;;2.55;;
15502;SDS011;7853;52.186;5.948;2023-08-31T02:18:35;4.07;;;2.65;;
15502;SDS011;7853;52.186;5.948;2023-08-31T02:19:35;3.95;;;2.85;;
15502;SDS011;7853;52.186;5.948;2023-08-31T02:20:35;3.97;;;2.74;;
15502;SDS011;7853;52.186;5.948;2023-08-31T02:21:35;3.94;;;2.63;;
15502;SDS011;7853;52.186;5.948;2023-08-31T02:22:35;3.51;;;2.56;;
15502;SDS011;7853;52.186;5.948;2023-08-31T02:23:35;4.49;;;3.15;;
15502;SDS011;7853;52.186;5.948;2023-08-31T02:24:35;6.37;;;3.33;;
15502;SDS011;7853;52.186;5.948;2023-08-31T02:25:35;4.22;;;3.16;;
15502;SDS011;7853;52.186;5.948;2023-08-31T02:26:35;4.91;;;3.37;;
15502;SDS011;7853;52.186;5.948;2023-08-31T02:27:35;4.42;;;3.45;;
15502;SDS011;7853;52.186;5.948;2023-08-31T02:28:35;4.68;;;3.52;;
15502;SDS011;7853;52.186;5.948;2023-08-31T02:29:35;4.62;;;3.31;;
15502;SDS011;7853;52.186;5.948;2023-08-31T02:30:35;4.82;;;3.41;;
15502;SDS011;7853;52.186;5.948;2023-08-31T02:31:35;5.01;;;3.62;;
15502;SDS011;7853;52.186;5.948;2023-08-31T02:32:35;4.38;;;3.67;;
15502;SDS011;7853;52.186;5.948;2023-08-31T02:33:37;4.15;;;3.56;;
15502;SDS011;7853;52.186;5.948;2023-08-31T02:34:34;4.50;;;3.50;;
15502;SDS011;7853;52.186;5.948;2023-08-31T02:35:34;4.71;;;3.49;;
15502;SDS011;7853;52.186;5.948;2023-08-31T02:36:34;5.00;;;3.73;;
15502;SDS011;7853;52.186;5.948;2023-08-31T02:37:34;4.51;;;3.29;;
15502;SDS011;7853;52.186;5.948;2023-08-31T02:38:35;4.26;;;3.39;;
15502;SDS011;7853;52.186;5.948;2023-08-31T02:39:35;4.99;;;3.47;;
15502;SDS011;7853;52.186;5.948;2023-08-31T02:40:35;3.95;;;3.47;;
15502;SDS011;7853;52.186;5.948;2023-08-31T02:41:35;4.47;;;3.72;;
15502;SDS011;7853;52.186;5.948;2023-08-31T02:42:35;4.97;;;3.60;;
15502;SDS011;7853;52.186;5.948;2023-08-31T02:43:35;4.25;;;3.37;;
15502;SDS011;7853;52.186;5.948;2023-08-31T02:44:35;4.68;;;3.30;;
15502;SDS011;7853;52.186;5.948;2023-08-31T02:45:34;4.99;;;3.63;;
15502;SDS011;7853;52.186;5.948;2023-08-31T02:46:35;3.87;;;3.18;;
15502;SDS011;7853;52.186;5.948;2023-08-31T02:47:35;3.89;;;3.19;;
15502;SDS011;7853;52.186;5.948;2023-08-31T02:48:35;4.71;;;3.66;;
15502;SDS011;7853;52.186;5.948;2023-08-31T02:49:35;3.87;;;3.16;;
15502;SDS011;7853;52.186;5.948;2023-08-31T02:50:35;3.82;;;3.10;;
15502;SDS011;7853;52.186;5.948;2023-08-31T02:51:35;3.97;;;3.50;;
15502;SDS011;7853;52.186;5.948;2023-08-31T02:52:35;3.89;;;3.27;;
15502;SDS011;7853;52.186;5.948;2023-08-31T02:53:35;3.64;;;2.71;;
15502;SDS011;7853;52.186;5.948;2023-08-31T02:54:35;3.29;;;2.65;;
15502;SDS011;7853;52.186;5.948;2023-08-31T02:55:35;3.69;;;3.13;;
15502;SDS011;7853;52.186;5.948;2023-08-31T02:56:35;3.66;;;3.06;;
15502;SDS011;7853;52.186;5.948;2023-08-31T02:57:35;3.24;;;2.63;;
15502;SDS011;7853;52.186;5.948;2023-08-31T02:58:35;3.42;;;2.41;;
15502;SDS011;7853;52.186;5.948;2023-08-31T02:59:35;2.88;;;2.52;;
15502;SDS011;7853;52.186;5.948;2023-08-31T03:00:35;3.31;;;2.40;;
15502;SDS011;7853;52.186;5.948;2023-08-31T03:01:35;2.97;;;2.26;;
15502;SDS011;7853;52.186;5.948;2023-08-31T03:02:37;3.24;;;2.28;;
15502;SDS011;7853;52.186;5.948;2023-08-31T03:03:33;3.48;;;2.18;;
15502;SDS011;7853;52.186;5.948;2023-08-31T03:04:34;2.43;;;1.95;;
15502;SDS011;7853;52.186;5.948;2023-08-31T03:05:34;2.46;;;1.95;;
15502;SDS011;7853;52.186;5.948;2023-08-31T03:06:35;2.46;;;1.93;;
15502;SDS011;7853;52.186;5.948;2023-08-31T03:07:35;2.35;;;1.74;;
15502;SDS011;7853;52.186;5.948;2023-08-31T03:08:35;2.51;;;1.80;;
15502;SDS011;7853;52.186;5.948;2023-08-31T03:09:35;2.56;;;1.80;;
15502;SDS011;7853;52.186;5.948;2023-08-31T03:10:35;2.41;;;1.86;;
15502;SDS011;7853;52.186;5.948;2023-08-31T03:11:35;2.60;;;1.91;;
15502;SDS011;7853;52.186;5.948;2023-08-31T03:12:35;2.29;;;1.85;;
15502;SDS011;7853;52.186;5.948;2023-08-31T03:13:35;2.59;;;1.86;;
15502;SDS011;7853;52.186;5.948;2023-08-31T03:14:35;2.08;;;1.64;;
15502;SDS011;7853;52.186;5.948;2023-08-31T03:15:35;2.10;;;1.71;;
15502;SDS011;7853;52.186;5.948;2023-08-31T03:16:35;2.48;;;1.67;;
15502;SDS011;7853;52.186;5.948;2023-08-31T03:17:35;2.41;;;1.64;;
15502;SDS011;7853;52.186;5.948;2023-08-31T03:18:35;2.31;;;1.72;;
15502;SDS011;7853;52.186;5.948;2023-08-31T03:19:35;2.44;;;1.76;;
15502;SDS011;7853;52.186;5.948;2023-08-31T03:20:35;2.03;;;1.61;;
15502;SDS011;7853;52.186;5.948;2023-08-31T03:21:35;2.07;;;1.66;;
15502;SDS011;7853;52.186;5.948;2023-08-31T03:22:35;2.48;;;1.79;;
15502;SDS011;7853;52.186;5.948;2023-08-31T03:23:35;3.50;;;1.90;;
15502;SDS011;7853;52.186;5.948;2023-08-31T03:24:35;2.36;;;1.91;;
15502;SDS011;7853;52.186;5.948;2023-08-31T03:25:35;2.63;;;1.99;;
15502;SDS011;7853;52.186;5.948;2023-08-31T03:26:35;2.07;;;1.81;;
15502;SDS011;7853;52.186;5.948;2023-08-31T03:27:36;2.81;;;2.14;;
15502;SDS011;7853;52.186;5.948;2023-08-31T03:28:34;3.01;;;2.14;;
15502;SDS011;7853;52.186;5.948;2023-08-31T03:29:37;3.23;;;2.27;;
15502;SDS011;7853;52.186;5.948;2023-08-31T03:30:35;3.49;;;2.24;;
15502;SDS011;7853;52.186;5.948;2023-08-31T03:31:38;2.98;;;2.18;;
15502;SDS011;7853;52.186;5.948;2023-08-31T03:32:35;3.08;;;2.23;;
15502;SDS011;7853;52.186;5.948;2023-08-31T03:33:35;2.76;;;2.20;;
15502;SDS011;7853;52.186;5.948;2023-08-31T03:34:35;3.47;;;2.35;;
15502;SDS011;7853;52.186;5.948;2023-08-31T03:35:35;3.23;;;2.30;;
15502;SDS011;7853;52.186;5.948;2023-08-31T03:36:35;3.24;;;2.64;;
15502;SDS011;7853;52.186;5.948;2023-08-31T03:37:35;3.94;;;2.67;;
15502;SDS011;7853;52.186;5.948;2023-08-31T03:38:35;3.28;;;2.21;;
15502;SDS011;7853;52.186;5.948;2023-08-31T03:39:35;3.68;;;2.59;;
15502;SDS011;7853;52.186;5.948;2023-08-31T03:40:35;3.55;;;2.59;;
15502;SDS011;7853;52.186;5.948;2023-08-31T03:41:35;3.61;;;2.33;;
15502;SDS011;7853;52.186;5.948;2023-08-31T03:42:35;3.83;;;2.90;;
15502;SDS011;7853;52.186;5.948;2023-08-31T03:43:35;3.19;;;2.78;;
15502;SDS011;7853;52.186;5.948;2023-08-31T03:44:35;4.02;;;2.71;;
15502;SDS011;7853;52.186;5.948;2023-08-31T03:45:35;5.35;;;2.88;;
15502;SDS011;7853;52.186;5.948;2023-08-31T03:46:35;4.15;;;3.03;;
15502;SDS011;7853;52.186;5.948;2023-08-31T03:47:35;3.40;;;2.80;;
15502;SDS011;7853;52.186;5.948;2023-08-31T03:48:35;4.08;;;3.07;;
15502;SDS011;7853;52.186;5.948;2023-08-31T03:49:35;3.88;;;3.09;;
15502;SDS011;7853;52.186;5.948;2023-08-31T03:50:36;4.83;;;3.00;;
15502;SDS011;7853;52.186;5.948;2023-08-31T03:51:35;3.54;;;3.11;;
15502;SDS011;7853;52.186;5.948;2023-08-31T03:52:35;3.65;;;2.98;;
15502;SDS011;7853;52.186;5.948;2023-08-31T03:53:35;3.72;;;3.01;;
15502;SDS011;7853;52.186;5.948;2023-08-31T03:54:35;4.43;;;3.35;;
15502;SDS011;7853;52.186;5.948;2023-08-31T03:55:35;3.54;;;2.90;;
15502;SDS011;7853;52.186;5.948;2023-08-31T03:56:35;5.12;;;3.47;;
15502;SDS011;7853;52.186;5.948;2023-08-31T03:57:35;4.23;;;3.15;;
15502;SDS011;7853;52.186;5.948;2023-08-31T03:58:35;4.65;;;3.35;;
15502;SDS011;7853;52.186;5.948;2023-08-31T03:59:35;4.72;;;3.15;;
15502;SDS011;7853;52.186;5.948;2023-08-31T04:00:36;4.55;;;3.37;;
15502;SDS011;7853;52.186;5.948;2023-08-31T04:01:34;5.02;;;3.43;;
15502;SDS011;7853;52.186;5.948;2023-08-31T04:02:34;4.29;;;3.15;;
15502;SDS011;7853;52.186;5.948;2023-08-31T04:03:35;5.03;;;3.52;;
15502;SDS011;7853;52.186;5.948;2023-08-31T04:04:35;5.33;;;3.41;;
15502;SDS011;7853;52.186;5.948;2023-08-31T04:05:35;4.88;;;3.58;;
15502;SDS011;7853;52.186;5.948;2023-08-31T04:06:35;5.09;;;3.51;;
15502;SDS011;7853;52.186;5.948;2023-08-31T04:07:35;5.97;;;3.86;;
15502;SDS011;7853;52.186;5.948;2023-08-31T04:08:35;3.91;;;3.30;;
15502;SDS011;7853;52.186;5.948;2023-08-31T04:09:35;4.43;;;3.35;;
15502;SDS011;7853;52.186;5.948;2023-08-31T04:10:35;4.73;;;3.57;;
15502;SDS011;7853;52.186;5.948;2023-08-31T04:11:35;4.64;;;3.54;;
15502;SDS011;7853;52.186;5.948;2023-08-31T04:12:35;3.65;;;2.93;;
15502;SDS011;7853;52.186;5.948;2023-08-31T04:13:35;3.69;;;2.94;;
15502;SDS011;7853;52.186;5.948;2023-08-31T04:14:35;4.25;;;3.20;;
15502;SDS011;7853;52.186;5.948;2023-08-31T04:15:35;4.75;;;2.91;;
15502;SDS011;7853;52.186;5.948;2023-08-31T04:16:35;4.84;;;3.51;;
15502;SDS011;7853;52.186;5.948;2023-08-31T04:17:35;3.89;;;3.22;;
15502;SDS011;7853;52.186;5.948;2023-08-31T04:18:35;4.48;;;3.05;;
15502;SDS011;7853;52.186;5.948;2023-08-31T04:19:35;3.89;;;2.89;;
15502;SDS011;7853;52.186;5.948;2023-08-31T04:20:35;5.03;;;3.36;;
15502;SDS011;7853;52.186;5.948;2023-08-31T04:21:35;3.91;;;3.09;;
15502;SDS011;7853;52.186;5.948;2023-08-31T04:22:35;4.30;;;3.19;;
15502;SDS011;7853;52.186;5.948;2023-08-31T04:23:35;4.51;;;2.91;;
15502;SDS011;7853;52.186;5.948;2023-08-31T04:24:35;6.24;;;3.16;;
15502;SDS011;7853;52.186;5.948;2023-08-31T04:25:35;4.63;;;2.91;;
15502;SDS011;7853;52.186;5.948;2023-08-31T04:26:35;4.22;;;3.27;;
15502;SDS011;7853;52.186;5.948;2023-08-31T04:27:35;3.80;;;2.96;;
15502;SDS011;7853;52.186;5.948;2023-08-31T04:28:35;4.39;;;2.94;;
15502;SDS011;7853;52.186;5.948;2023-08-31T04:29:38;4.41;;;3.07;;
15502;SDS011;7853;52.186;5.948;2023-08-31T04:30:35;3.79;;;2.93;;
15502;SDS011;7853;52.186;5.948;2023-08-31T04:31:35;3.54;;;2.81;;
15502;SDS011;7853;52.186;5.948;2023-08-31T04:32:35;4.24;;;3.04;;
15502;SDS011;7853;52.186;5.948;2023-08-31T04:33:35;4.73;;;3.20;;
15502;SDS011;7853;52.186;5.948;2023-08-31T04:34:35;3.85;;;3.00;;
15502;SDS011;7853;52.186;5.948;2023-08-31T04:35:35;3.62;;;2.64;;
15502;SDS011;7853;52.186;5.948;2023-08-31T04:36:35;4.99;;;3.08;;
15502;SDS011;7853;52.186;5.948;2023-08-31T04:37:35;4.06;;;2.88;;
15502;SDS011;7853;52.186;5.948;2023-08-31T04:38:35;5.06;;;3.43;;
15502;SDS011;7853;52.186;5.948;2023-08-31T04:39:35;3.97;;;3.22;;
15502;SDS011;7853;52.186;5.948;2023-08-31T04:40:35;4.74;;;3.25;;
15502;SDS011;7853;52.186;5.948;2023-08-31T04:41:35;4.34;;;3.39;;
15502;SDS011;7853;52.186;5.948;2023-08-31T04:42:35;4.31;;;3.22;;
15502;SDS011;7853;52.186;5.948;2023-08-31T04:43:35;4.36;;;2.96;;
15502;SDS011;7853;52.186;5.948;2023-08-31T04:44:35;4.22;;;2.97;;
15502;SDS011;7853;52.186;5.948;2023-08-31T04:45:35;4.69;;;2.74;;
15502;SDS011;7853;52.186;5.948;2023-08-31T04:46:35;3.69;;;2.63;;
15502;SDS011;7853;52.186;5.948;2023-08-31T04:47:35;4.65;;;2.94;;
15502;SDS011;7853;52.186;5.948;2023-08-31T04:48:35;4.51;;;3.10;;
15502;SDS011;7853;52.186;5.948;2023-08-31T04:49:35;4.16;;;2.99;;
15502;SDS011;7853;52.186;5.948;2023-08-31T04:50:35;4.80;;;3.26;;
15502;SDS011;7853;52.186;5.948;2023-08-31T04:51:35;5.13;;;3.42;;
15502;SDS011;7853;52.186;5.948;2023-08-31T04:52:35;4.86;;;3.13;;
15502;SDS011;7853;52.186;5.948;2023-08-31T04:53:35;4.21;;;3.26;;
15502;SDS011;7853;52.186;5.948;2023-08-31T04:54:35;4.22;;;3.08;;
15502;SDS011;7853;52.186;5.948;2023-08-31T04:55:35;4.54;;;3.08;;
15502;SDS011;7853;52.186;5.948;2023-08-31T04:56:35;4.52;;;3.12;;
15502;SDS011;7853;52.186;5.948;2023-08-31T04:57:35;4.83;;;3.10;;
15502;SDS011;7853;52.186;5.948;2023-08-31T04:58:36;4.09;;;2.95;;
15502;SDS011;7853;52.186;5.948;2023-08-31T04:59:35;4.74;;;3.06;;
15502;SDS011;7853;52.186;5.948;2023-08-31T05:00:35;4.03;;;3.37;;
15502;SDS011;7853;52.186;5.948;2023-08-31T05:01:35;5.09;;;3.25;;
15502;SDS011;7853;52.186;5.948;2023-08-31T05:02:35;5.72;;;3.20;;
15502;SDS011;7853;52.186;5.948;2023-08-31T05:03:35;4.43;;;3.11;;
15502;SDS011;7853;52.186;5.948;2023-08-31T05:04:35;4.48;;;3.02;;
15502;SDS011;7853;52.186;5.948;2023-08-31T05:05:35;4.11;;;3.00;;
15502;SDS011;7853;52.186;5.948;2023-08-31T05:06:35;5.02;;;3.02;;
15502;SDS011;7853;52.186;5.948;2023-08-31T05:07:35;4.07;;;2.99;;
15502;SDS011;7853;52.186;5.948;2023-08-31T05:08:35;4.35;;;2.91;;
15502;SDS011;7853;52.186;5.948;2023-08-31T05:09:35;4.60;;;3.13;;
15502;SDS011;7853;52.186;5.948;2023-08-31T05:10:35;4.35;;;3.15;;
15502;SDS011;7853;52.186;5.948;2023-08-31T05:11:35;5.29;;;3.56;;
15502;SDS011;7853;52.186;5.948;2023-08-31T05:12:35;4.70;;;3.47;;
15502;SDS011;7853;52.186;5.948;2023-08-31T05:13:35;5.51;;;3.52;;
15502;SDS011;7853;52.186;5.948;2023-08-31T05:14:35;4.79;;;3.33;;
15502;SDS011;7853;52.186;5.948;2023-08-31T05:15:35;5.08;;;3.08;;
15502;SDS011;7853;52.186;5.948;2023-08-31T05:16:35;4.51;;;3.33;;
15502;SDS011;7853;52.186;5.948;2023-08-31T05:17:35;4.57;;;3.31;;
15502;SDS011;7853;52.186;5.948;2023-08-31T05:18:35;6.12;;;3.52;;
15502;SDS011;7853;52.186;5.948;2023-08-31T05:19:35;5.53;;;3.43;;
15502;SDS011;7853;52.186;5.948;2023-08-31T05:20:35;4.35;;;3.06;;
15502;SDS011;7853;52.186;5.948;2023-08-31T05:21:35;4.91;;;3.46;;
15502;SDS011;7853;52.186;5.948;2023-08-31T05:22:35;4.69;;;3.14;;
15502;SDS011;7853;52.186;5.948;2023-08-31T05:23:35;4.69;;;3.31;;
15502;SDS011;7853;52.186;5.948;2023-08-31T05:24:35;4.81;;;3.41;;
15502;SDS011;7853;52.186;5.948;2023-08-31T05:25:35;4.81;;;3.25;;
15502;SDS011;7853;52.186;5.948;2023-08-31T05:26:35;5.14;;;3.45;;
15502;SDS011;7853;52.186;5.948;2023-08-31T05:27:37;4.88;;;3.32;;
15502;SDS011;7853;52.186;5.948;2023-08-31T05:28:35;5.43;;;3.66;;
15502;SDS011;7853;52.186;5.948;2023-08-31T05:29:35;5.54;;;3.73;;
15502;SDS011;7853;52.186;5.948;2023-08-31T05:30:35;5.35;;;3.65;;
15502;SDS011;7853;52.186;5.948;2023-08-31T05:31:35;4.86;;;3.63;;
15502;SDS011;7853;52.186;5.948;2023-08-31T05:32:35;6.22;;;4.04;;
15502;SDS011;7853;52.186;5.948;2023-08-31T05:33:35;6.02;;;3.86;;
15502;SDS011;7853;52.186;5.948;2023-08-31T05:34:35;4.77;;;3.49;;
15502;SDS011;7853;52.186;5.948;2023-08-31T05:35:36;6.36;;;4.13;;
15502;SDS011;7853;52.186;5.948;2023-08-31T05:36:35;5.93;;;4.24;;
15502;SDS011;7853;52.186;5.948;2023-08-31T05:37:35;5.58;;;3.84;;
15502;SDS011;7853;52.186;5.948;2023-08-31T05:38:35;6.03;;;4.48;;
15502;SDS011;7853;52.186;5.948;2023-08-31T05:39:35;5.05;;;3.87;;
15502;SDS011;7853;52.186;5.948;2023-08-31T05:40:35;5.29;;;3.78;;
15502;SDS011;7853;52.186;5.948;2023-08-31T05:41:35;5.40;;;4.30;;
15502;SDS011;7853;52.186;5.948;2023-08-31T05:42:35;5.45;;;4.22;;
15502;SDS011;7853;52.186;5.948;2023-08-31T05:43:35;5.33;;;4.32;;
15502;SDS011;7853;52.186;5.948;2023-08-31T05:44:35;4.91;;;3.90;;
15502;SDS011;7853;52.186;5.948;2023-08-31T05:45:35;4.09;;;3.23;;
15502;SDS011;7853;52.186;5.948;2023-08-31T05:46:35;6.34;;;3.93;;
15502;SDS011;7853;52.186;5.948;2023-08-31T05:47:35;5.04;;;3.90;;
15502;SDS011;7853;52.186;5.948;2023-08-31T05:48:35;6.84;;;4.00;;
15502;SDS011;7853;52.186;5.948;2023-08-31T05:49:35;5.34;;;3.89;;
15502;SDS011;7853;52.186;5.948;2023-08-31T05:50:35;6.25;;;3.68;;
15502;SDS011;7853;52.186;5.948;2023-08-31T05:51:35;4.87;;;3.47;;
15502;SDS011;7853;52.186;5.948;2023-08-31T05:52:35;5.39;;;3.72;;
15502;SDS011;7853;52.186;5.948;2023-08-31T05:53:35;6.78;;;4.29;;
15502;SDS011;7853;52.186;5.948;2023-08-31T05:54:35;4.83;;;3.11;;
15502;SDS011;7853;52.186;5.948;2023-08-31T05:55:35;5.11;;;3.49;;
15502;SDS011;7853;52.186;5.948;2023-08-31T05:56:35;5.16;;;3.55;;
15502;SDS011;7853;52.186;5.948;2023-08-31T05:57:35;6.13;;;3.54;;
15502;SDS011;7853;52.186;5.948;2023-08-31T05:58:35;5.27;;;3.53;;
15502;SDS011;7853;52.186;5.948;2023-08-31T05:59:35;4.85;;;3.77;;
15502;SDS011;7853;52.186;5.948;2023-08-31T06:00:35;5.10;;;3.63;;
15502;SDS011;7853;52.186;5.948;2023-08-31T06:01:35;5.98;;;3.92;;
15502;SDS011;7853;52.186;5.948;2023-08-31T06:02:35;4.57;;;3.56;;
15502;SDS011;7853;52.186;5.948;2023-08-31T06:03:35;4.72;;;3.75;;
15502;SDS011;7853;52.186;5.948;2023-08-31T06:04:35;4.91;;;3.31;;
15502;SDS011;7853;52.186;5.948;2023-08-31T06:05:35;4.92;;;3.08;;
15502;SDS011;7853;52.186;5.948;2023-08-31T06:06:35;5.18;;;3.70;;